createdAt,value
2018-06-11T00:01:27.612Z,12.10
2018-06-11T00:04:00.966Z,11.22
2018-06-11T00:06:34.348Z,11.88
2018-06-11T00:09:08.518Z,11.93
2018-06-11T00:11:41.896Z,11.95
2018-06-11T00:14:15.292Z,12.47
2018-06-11T00:16:48.750Z,11.83
2018-06-11T00:19:22.132Z,11.55
2018-06-11T00:21:55.528Z,13.30
2018-06-11T00:24:28.918Z,11.80
2018-06-11T00:27:02.306Z,14.03
2018-06-11T00:29:35.671Z,11.43
2018-06-11T00:32:09.058Z,12.10
2018-06-11T00:34:42.424Z,15.38
2018-06-11T00:37:15.800Z,13.28
2018-06-11T00:39:49.177Z,13.38
2018-06-11T00:42:22.563Z,15.13
2018-06-11T00:44:55.944Z,12.73
2018-06-11T00:47:29.319Z,13.22
2018-06-11T00:50:02.700Z,16.30
2018-06-11T00:52:36.087Z,14.30
2018-06-11T00:55:09.453Z,13.88
2018-06-11T00:57:42.837Z,15.55
2018-06-11T01:00:16.225Z,13.22
2018-06-11T01:02:49.648Z,14.87
2018-06-11T01:05:23.015Z,13.83
2018-06-11T01:07:56.387Z,15.48
2018-06-11T01:10:29.744Z,15.63
2018-06-11T01:13:03.197Z,14.98
2018-06-11T01:15:36.583Z,16.45
2018-06-11T01:18:09.967Z,15.45
2018-06-11T01:20:43.346Z,16.10
2018-06-11T01:23:16.732Z,14.83
2018-06-11T01:25:50.111Z,14.98
2018-06-11T01:28:23.504Z,13.85
2018-06-11T01:30:56.913Z,13.83
2018-06-11T01:33:30.314Z,14.30
2018-06-11T01:36:03.684Z,13.22
2018-06-11T01:38:37.063Z,13.65
2018-06-11T01:41:10.416Z,13.93
2018-06-11T01:43:43.799Z,13.40
2018-06-11T01:46:17.169Z,13.22
2018-06-11T01:48:50.567Z,13.20
2018-06-11T01:51:23.930Z,15.93
2018-06-11T01:53:57.328Z,14.05
2018-06-11T01:56:30.714Z,14.58
2018-06-11T01:59:04.125Z,12.58
2018-06-11T02:01:37.502Z,14.00
2018-06-11T02:04:10.892Z,12.40
2018-06-11T02:06:44.258Z,13.62
2018-06-11T02:09:17.637Z,13.60
2018-06-11T02:11:50.975Z,15.03
2018-06-11T02:14:24.396Z,13.28
2018-06-11T02:16:57.768Z,12.85
2018-06-11T02:19:31.148Z,14.87
2018-06-11T02:22:04.565Z,15.85
2018-06-11T02:24:37.956Z,13.93
2018-06-11T02:27:11.324Z,14.95
2018-06-11T02:29:44.720Z,14.10
2018-06-11T02:32:18.092Z,12.50
2018-06-11T02:34:51.499Z,15.63
2018-06-11T02:37:24.849Z,15.03
2018-06-11T02:39:58.247Z,14.00
2018-06-11T02:42:31.637Z,13.48
2018-06-11T02:45:05.074Z,13.75
2018-06-11T02:47:38.465Z,13.72
2018-06-11T02:50:11.840Z,13.68
2018-06-11T02:52:45.251Z,16.97
2018-06-11T02:55:18.651Z,14.28
2018-06-11T02:57:52.065Z,13.88
2018-06-11T03:00:25.438Z,13.55
2018-06-11T03:02:58.812Z,13.20
2018-06-11T03:05:32.171Z,13.62
2018-06-11T03:08:05.562Z,12.98
2018-06-11T03:10:38.929Z,12.68
2018-06-11T03:13:12.333Z,13.15
2018-06-11T03:15:45.716Z,12.23
2018-06-11T03:18:19.753Z,13.20
2018-06-11T03:20:53.132Z,11.55
2018-06-11T03:23:26.512Z,12.35
2018-06-11T03:25:59.903Z,11.43
2018-06-11T03:28:33.296Z,11.57
2018-06-11T03:31:06.775Z,13.93
2018-06-11T03:33:40.164Z,9.73
2018-06-11T03:36:13.543Z,10.03
2018-06-11T03:38:46.968Z,10.38
2018-06-11T03:41:20.335Z,10.13
2018-06-11T03:43:53.726Z,10.15
2018-06-11T03:46:27.104Z,14.98
2018-06-11T03:49:00.488Z,11.15
2018-06-11T03:51:33.837Z,9.38
2018-06-11T03:54:07.240Z,11.18
2018-06-11T03:56:40.601Z,10.63
2018-06-11T03:59:13.992Z,12.25
2018-06-11T04:01:47.389Z,10.70
2018-06-11T04:04:20.912Z,10.85
2018-06-11T04:06:54.336Z,10.60
2018-06-11T04:09:27.768Z,11.60
2018-06-11T04:12:01.148Z,9.98
2018-06-11T04:14:34.591Z,9.70
2018-06-11T04:17:07.979Z,9.35
2018-06-11T04:19:41.385Z,9.75
2018-06-11T04:22:14.810Z,10.88
2018-06-11T04:24:48.283Z,9.40
2018-06-11T04:27:21.696Z,9.60
2018-06-11T04:29:55.147Z,8.58
2018-06-11T04:32:28.630Z,9.43
2018-06-11T04:35:02.209Z,8.98
2018-06-11T04:37:35.621Z,8.98
2018-06-11T04:40:09.076Z,8.50
2018-06-11T04:42:42.493Z,8.83
2018-06-11T04:45:15.939Z,8.55
2018-06-11T04:47:49.384Z,8.03
2018-06-11T04:50:22.830Z,7.85
2018-06-11T04:52:56.230Z,7.67
2018-06-11T04:55:29.686Z,7.83
2018-06-11T04:58:03.089Z,7.45
2018-06-11T05:00:36.555Z,7.67
2018-06-11T05:03:09.985Z,8.70
2018-06-11T05:05:43.411Z,8.00
2018-06-11T05:08:16.826Z,7.62
2018-06-11T05:10:50.268Z,8.68
2018-06-11T05:13:23.670Z,7.87
2018-06-11T05:15:57.143Z,7.33
2018-06-11T05:18:30.581Z,7.35
2018-06-11T05:21:04.821Z,7.33
2018-06-11T05:23:38.230Z,7.70
2018-06-11T05:26:11.651Z,7.72
2018-06-11T05:28:45.122Z,7.62
2018-06-11T05:31:18.515Z,7.15
2018-06-11T05:33:51.896Z,7.00
2018-06-11T05:36:25.314Z,7.00
2018-06-11T05:38:58.714Z,7.15
2018-06-11T05:41:32.122Z,7.55
2018-06-11T05:44:05.556Z,6.67
2018-06-11T05:46:38.960Z,6.10
2018-06-11T05:49:12.353Z,6.67
2018-06-11T05:51:45.751Z,7.37
2018-06-11T05:54:19.388Z,6.00
2018-06-11T05:56:52.768Z,5.90
2018-06-11T05:59:26.182Z,6.37
2018-06-11T06:01:59.576Z,6.20
2018-06-11T06:04:32.968Z,6.83
2018-06-11T06:07:06.365Z,6.72
2018-06-11T06:09:39.756Z,6.40
2018-06-11T06:12:13.169Z,7.97
2018-06-11T06:14:46.627Z,6.92
2018-06-11T06:17:20.069Z,6.40
2018-06-11T06:19:53.522Z,6.40
2018-06-11T06:22:26.943Z,5.90
2018-06-11T06:25:00.390Z,6.78
2018-06-11T06:27:33.773Z,6.28
2018-06-11T06:30:07.180Z,6.95
2018-06-11T06:32:40.573Z,5.72
2018-06-11T06:35:13.951Z,5.50
2018-06-11T06:37:47.348Z,9.48
2018-06-11T06:40:20.723Z,7.80
2018-06-11T06:42:54.114Z,5.33
2018-06-11T06:45:27.520Z,5.85
2018-06-11T06:48:00.880Z,9.18
2018-06-11T06:50:34.260Z,6.45
2018-06-11T06:53:07.659Z,5.05
2018-06-11T06:55:41.088Z,5.10
2018-06-11T06:58:14.468Z,6.75
2018-06-11T07:00:47.915Z,4.50
2018-06-11T07:03:21.324Z,6.08
2018-06-11T07:05:54.773Z,4.78
2018-06-11T07:08:28.221Z,4.67
2018-06-11T07:11:01.685Z,4.53
2018-06-11T07:13:35.127Z,4.20
2018-06-11T07:16:09.590Z,5.97
2018-06-11T07:18:43.872Z,5.33
2018-06-11T07:21:17.826Z,5.15
2018-06-11T07:23:51.750Z,4.00
2018-06-11T07:26:25.407Z,4.75
2018-06-11T07:28:59.033Z,3.47
2018-06-11T07:31:32.486Z,5.37
2018-06-11T07:34:06.049Z,3.70
2018-06-11T07:36:39.564Z,4.40
2018-06-11T07:39:13.020Z,4.83
2018-06-11T07:41:46.509Z,4.53
2018-06-11T07:44:20.031Z,4.28
2018-06-11T07:46:53.488Z,4.95
2018-06-11T07:49:26.884Z,3.92
2018-06-11T07:52:00.303Z,6.67
2018-06-11T07:54:33.677Z,4.35
2018-06-11T07:57:07.096Z,20.27
2018-06-11T07:59:40.484Z,5.37
2018-06-11T08:02:13.909Z,4.00
2018-06-11T08:04:47.288Z,6.75
2018-06-11T08:07:20.676Z,4.72
2018-06-11T08:09:54.052Z,3.05
2018-06-11T08:12:27.483Z,3.70
2018-06-11T08:15:00.916Z,2.70
2018-06-11T08:17:34.355Z,3.72
2018-06-11T08:20:07.764Z,5.08
2018-06-11T08:22:41.147Z,4.10
2018-06-11T08:25:14.549Z,3.67
2018-06-11T08:27:47.999Z,3.30
2018-06-11T08:30:21.385Z,7.95
2018-06-11T08:32:54.764Z,4.47
2018-06-11T08:35:28.213Z,4.78
2018-06-11T08:38:01.636Z,2.33
2018-06-11T08:40:34.996Z,5.55
2018-06-11T08:43:08.420Z,4.85
2018-06-11T08:45:41.791Z,3.12
2018-06-11T08:48:15.337Z,3.37
2018-06-11T08:50:48.781Z,4.97
2018-06-11T08:53:22.183Z,3.98
2018-06-11T08:55:55.564Z,4.37
2018-06-11T08:58:28.960Z,3.25
2018-06-11T09:01:02.370Z,4.47
2018-06-11T09:03:35.782Z,7.45
2018-06-11T09:06:09.161Z,3.92
2018-06-11T09:08:42.545Z,5.80
2018-06-11T09:11:15.924Z,5.05
2018-06-11T09:13:49.389Z,6.55
2018-06-11T09:16:22.777Z,8.85
2018-06-11T09:18:56.179Z,4.97
2018-06-11T09:21:29.629Z,4.45
2018-06-11T09:24:03.024Z,3.80
2018-06-11T09:26:36.463Z,5.53
2018-06-11T09:29:09.817Z,4.05
2018-06-11T09:31:43.201Z,3.20
2018-06-11T09:34:16.564Z,6.60
2018-06-11T09:36:49.971Z,4.12
2018-06-11T09:39:23.373Z,6.30
2018-06-11T09:41:56.755Z,3.22
2018-06-11T09:44:30.121Z,2.80
2018-06-11T09:47:03.538Z,3.42
2018-06-11T09:49:36.942Z,4.33
2018-06-11T09:52:10.329Z,4.33
2018-06-11T09:54:43.730Z,4.03
2018-06-11T09:57:17.100Z,4.17
2018-06-11T09:59:50.474Z,4.00
2018-06-11T10:02:23.869Z,4.20
2018-06-11T10:04:57.246Z,3.62
2018-06-11T10:07:30.624Z,2.62
2018-06-11T10:10:04.024Z,4.95
2018-06-11T10:12:37.459Z,7.25
2018-06-11T10:15:10.884Z,5.17
2018-06-11T10:17:44.287Z,4.05
2018-06-11T10:20:17.646Z,4.15
2018-06-11T10:22:51.043Z,4.08
2018-06-11T10:25:24.401Z,3.75
2018-06-11T10:27:57.880Z,5.03
2018-06-11T10:30:31.228Z,3.77
2018-06-11T10:33:04.630Z,6.17
2018-06-11T10:35:37.989Z,3.27
2018-06-11T10:38:11.348Z,4.50
2018-06-11T10:40:44.710Z,2.62
2018-06-11T10:43:18.105Z,6.33
2018-06-11T10:45:51.504Z,5.20
2018-06-11T10:48:24.880Z,5.45
2018-06-11T10:50:58.324Z,3.40
2018-06-11T10:53:31.702Z,3.80
2018-06-11T10:56:05.159Z,2.40
2018-06-11T10:58:38.564Z,4.58
2018-06-11T11:01:11.925Z,2.58
2018-06-11T11:03:45.312Z,2.83
2018-06-11T11:06:18.741Z,4.95
2018-06-11T11:08:52.131Z,4.80
2018-06-11T11:11:25.520Z,5.65
2018-06-11T11:13:58.912Z,3.77
2018-06-11T11:16:32.318Z,4.67
2018-06-11T11:19:05.783Z,3.72
2018-06-11T11:21:39.133Z,5.15
2018-06-11T11:24:12.521Z,3.47
2018-06-11T11:26:45.873Z,2.98
2018-06-11T11:29:19.269Z,7.97
2018-06-11T11:31:52.644Z,3.37
2018-06-11T11:34:26.066Z,3.90
2018-06-11T11:36:59.438Z,3.33
2018-06-11T11:39:32.879Z,6.58
2018-06-11T11:42:06.321Z,4.00
2018-06-11T11:44:43.235Z,5.83
2018-06-11T11:47:20.974Z,9.40
2018-06-11T11:49:54.435Z,6.15
2018-06-11T11:52:27.882Z,4.85
2018-06-11T11:55:01.348Z,3.47
2018-06-11T11:57:34.742Z,3.65
2018-06-11T12:00:08.498Z,8.13
2018-06-11T12:02:42.220Z,4.53
2018-06-11T12:05:15.884Z,2.70
2018-06-11T12:07:49.281Z,4.20
2018-06-11T12:10:22.702Z,5.12
2018-06-11T12:12:56.105Z,3.05
2018-06-11T12:15:29.777Z,2.70
2018-06-11T12:18:03.135Z,2.33
2018-06-11T12:20:36.522Z,3.65
2018-06-11T12:23:09.902Z,3.40
2018-06-11T12:25:43.292Z,3.35
2018-06-11T12:28:16.672Z,4.10
2018-06-11T12:30:50.090Z,4.47
2018-06-11T12:33:23.441Z,3.45
2018-06-11T12:35:56.849Z,4.80
2018-06-11T12:38:30.235Z,3.90
2018-06-11T12:41:03.601Z,4.45
2018-06-11T12:43:36.983Z,4.65
2018-06-11T12:46:10.378Z,3.90
2018-06-11T12:48:43.752Z,5.08
2018-06-11T12:51:17.110Z,4.25
2018-06-11T12:53:50.506Z,3.98
2018-06-11T12:56:23.942Z,2.55
2018-06-11T12:58:57.336Z,2.85
2018-06-11T13:01:30.754Z,3.37
2018-06-11T13:04:04.192Z,4.03
2018-06-11T13:06:37.603Z,2.80
2018-06-11T13:09:10.995Z,2.95
2018-06-11T13:11:44.382Z,3.10
2018-06-11T13:14:18.650Z,2.33
2018-06-11T13:16:52.018Z,2.77
2018-06-11T13:19:25.446Z,2.33
2018-06-11T13:21:58.825Z,4.72
2018-06-11T13:24:32.200Z,2.83
2018-06-11T13:27:05.600Z,3.47
2018-06-11T13:29:38.992Z,3.08
2018-06-11T13:32:12.581Z,2.83
2018-06-11T13:34:46.120Z,2.92
2018-06-11T13:37:19.671Z,4.50
2018-06-11T13:39:53.210Z,4.33
2018-06-11T13:42:26.630Z,3.20
2018-06-11T13:45:00.037Z,2.08
2018-06-11T13:47:33.443Z,4.92
2018-06-11T13:50:06.887Z,3.40
2018-06-11T13:52:40.248Z,2.60
2018-06-11T13:55:13.682Z,2.42
2018-06-11T13:57:47.064Z,2.80
2018-06-11T14:00:20.485Z,4.42
2018-06-11T14:02:53.856Z,2.62
2018-06-11T14:05:27.243Z,3.05
2018-06-11T14:08:00.644Z,3.55
2018-06-11T14:10:34.059Z,5.10
2018-06-11T14:13:07.445Z,2.70
2018-06-11T14:15:40.884Z,2.30
2018-06-11T14:18:14.256Z,3.55
2018-06-11T14:20:48.891Z,5.22
2018-06-11T14:23:23.528Z,2.92
2018-06-11T14:25:58.267Z,3.60
2018-06-11T14:28:32.844Z,2.83
2018-06-11T14:31:07.546Z,5.55
2018-06-11T14:33:42.173Z,3.65
2018-06-11T14:36:16.973Z,2.25
2018-06-11T14:38:51.532Z,4.30
2018-06-11T14:41:26.182Z,3.75
2018-06-11T14:44:00.826Z,3.25
2018-06-11T14:46:35.522Z,3.62
2018-06-11T14:49:08.935Z,3.58
2018-06-11T14:51:42.315Z,2.98
2018-06-11T14:54:15.672Z,3.95
2018-06-11T14:56:49.295Z,3.20
2018-06-11T14:59:22.701Z,2.90
2018-06-11T15:01:56.091Z,3.67
2018-06-11T15:04:29.455Z,2.65
2018-06-11T15:07:02.857Z,2.52
2018-06-11T15:09:36.239Z,2.65
2018-06-11T15:12:09.652Z,2.62
2018-06-11T15:14:43.130Z,4.30
2018-06-11T15:17:16.531Z,3.17
2018-06-11T15:19:49.926Z,2.95
2018-06-11T15:22:23.319Z,3.83
2018-06-11T15:24:57.080Z,2.80
2018-06-11T15:27:30.872Z,4.67
2018-06-11T15:30:04.377Z,2.87
2018-06-11T15:32:37.956Z,4.30
2018-06-11T15:35:11.323Z,2.67
2018-06-11T15:37:44.704Z,6.25
2018-06-11T15:40:18.111Z,2.65
2018-06-11T15:42:51.500Z,2.90
2018-06-11T15:45:25.589Z,3.95
2018-06-11T15:47:59.879Z,2.80
2018-06-11T15:50:34.176Z,3.65
2018-06-11T15:53:08.384Z,3.65
2018-06-11T15:55:42.443Z,2.10
2018-06-11T15:58:16.519Z,3.17
2018-06-11T16:00:50.679Z,3.22
2018-06-11T16:03:24.754Z,3.40
2018-06-11T16:05:58.811Z,3.80
2018-06-11T16:08:32.812Z,2.70
2018-06-11T16:11:07.046Z,3.77
2018-06-11T16:13:40.451Z,2.47
2018-06-11T16:16:13.836Z,4.60
2018-06-11T16:18:47.203Z,2.12
2018-06-11T16:21:20.584Z,2.50
2018-06-11T16:23:53.929Z,2.45
2018-06-11T16:26:27.364Z,3.27
2018-06-11T16:29:01.454Z,5.35
2018-06-11T16:31:36.997Z,3.17
2018-06-11T16:34:11.808Z,4.90
2018-06-11T16:36:46.520Z,4.47
2018-06-11T16:39:21.966Z,2.62
2018-06-11T16:41:56.657Z,5.50
2018-06-11T16:44:32.024Z,3.10
2018-06-11T16:47:06.715Z,2.98
2018-06-11T16:49:41.265Z,3.65
2018-06-11T16:52:15.883Z,3.65
2018-06-11T16:54:52.294Z,2.87
2018-06-11T16:57:27.074Z,3.12
2018-06-11T17:00:01.455Z,3.00
2018-06-11T17:02:34.895Z,3.22
2018-06-11T17:05:08.351Z,4.85
2018-06-11T17:07:41.739Z,4.05
2018-06-11T17:13:10.620Z,4.28
2018-06-11T17:15:44.028Z,3.40
2018-06-11T17:18:17.487Z,4.50
2018-06-11T17:20:51.890Z,3.05
2018-06-11T17:23:25.309Z,3.30
2018-06-11T17:25:58.800Z,3.00
2018-06-11T17:28:32.245Z,3.25
2018-06-11T17:31:05.981Z,5.28
2018-06-11T17:33:39.512Z,4.70
2018-06-11T17:36:12.958Z,3.40
2018-06-11T17:38:46.384Z,3.67
2018-06-11T17:41:19.865Z,3.70
2018-06-11T17:43:53.332Z,3.37
2018-06-11T17:46:31.768Z,5.17
2018-06-11T17:49:05.257Z,3.12
2018-06-11T17:51:38.734Z,3.00
2018-06-11T17:54:12.197Z,3.85
2018-06-11T17:56:45.624Z,3.08
2018-06-11T17:59:19.161Z,3.33
2018-06-11T18:01:52.563Z,3.92
2018-06-11T18:04:26.056Z,3.15
2018-06-11T18:06:59.424Z,5.40
2018-06-11T18:09:33.452Z,3.52
2018-06-11T18:12:07.533Z,5.47
2018-06-11T18:14:41.010Z,3.83
2018-06-11T18:17:14.415Z,3.30
2018-06-11T18:19:47.875Z,2.85
2018-06-11T18:22:21.299Z,6.58
2018-06-11T18:24:54.681Z,3.12
2018-06-11T18:27:28.158Z,3.27
2018-06-11T18:30:01.573Z,2.85
2018-06-11T18:32:34.990Z,3.72
2018-06-11T18:35:08.407Z,3.17
2018-06-11T18:37:41.873Z,2.75
2018-06-11T18:40:15.265Z,3.02
2018-06-11T18:42:48.717Z,3.80
2018-06-11T18:45:22.092Z,3.25
2018-06-11T18:47:55.492Z,4.60
2018-06-11T18:50:28.990Z,3.10
2018-06-11T18:53:02.402Z,3.90
2018-06-11T18:55:35.837Z,3.35
2018-06-11T18:58:09.293Z,3.98
2018-06-11T19:00:42.699Z,3.75
2018-06-11T19:03:21.643Z,3.77
2018-06-11T19:05:55.056Z,4.28
2018-06-11T19:08:28.496Z,3.60
2018-06-11T19:11:01.899Z,3.65
2018-06-11T19:13:35.344Z,3.12
2018-06-11T19:16:08.740Z,4.45
2018-06-11T19:18:42.180Z,5.90
2018-06-11T19:21:15.628Z,3.45
2018-06-11T19:23:49.076Z,5.92
2018-06-11T19:26:22.582Z,4.10
2018-06-11T19:28:56.043Z,3.90
2018-06-11T19:31:29.439Z,6.00
2018-06-11T19:34:02.871Z,3.52
2018-06-11T19:36:36.282Z,3.72
2018-06-11T19:39:09.703Z,6.80
2018-06-11T19:41:43.129Z,4.17
2018-06-11T19:44:16.552Z,4.95
2018-06-11T19:46:50.089Z,3.20
2018-06-11T19:49:23.815Z,3.85
2018-06-11T19:51:57.339Z,4.60
2018-06-11T19:54:30.792Z,5.83
2018-06-11T19:57:12.028Z,3.95
2018-06-11T19:59:45.446Z,5.65
2018-06-11T20:02:18.913Z,5.87
2018-06-11T20:04:52.349Z,3.80
2018-06-11T20:07:25.754Z,7.45
2018-06-11T20:09:59.199Z,6.53
2018-06-11T20:12:32.597Z,5.28
2018-06-11T20:15:06.056Z,4.80
2018-06-11T20:17:39.421Z,5.33
2018-06-11T20:20:12.800Z,4.28
2018-06-11T20:22:46.177Z,4.42
2018-06-11T20:25:19.661Z,5.03
2018-06-11T20:27:53.043Z,4.67
2018-06-11T20:30:29.356Z,4.78
2018-06-11T20:33:05.894Z,4.92
2018-06-11T20:35:39.396Z,4.83
2018-06-11T20:38:12.740Z,6.25
2018-06-11T20:40:48.649Z,4.55
2018-06-11T20:43:22.089Z,4.40
2018-06-11T20:45:55.478Z,7.37
2018-06-11T20:48:32.254Z,4.28
2018-06-11T20:51:12.290Z,6.33
2018-06-11T20:53:48.129Z,5.97
2018-06-11T20:56:23.576Z,4.47
2018-06-11T20:59:02.158Z,5.75
2018-06-11T21:01:41.881Z,6.22
2018-06-11T21:04:19.776Z,4.75
2018-06-11T21:06:57.145Z,5.17
2018-06-11T21:09:33.431Z,5.37
2018-06-11T21:14:58.945Z,3.92
2018-06-11T21:17:38.886Z,6.85
2018-06-11T21:20:17.117Z,6.25
2018-06-11T21:22:57.644Z,4.28
2018-06-11T21:25:34.652Z,4.42
2018-06-11T21:28:10.186Z,3.83
2018-06-11T21:30:49.406Z,4.20
2018-06-11T21:33:26.700Z,3.72
2018-06-11T21:36:04.778Z,6.30
2018-06-11T21:38:39.933Z,4.65
2018-06-11T21:41:18.412Z,6.95
2018-06-11T21:43:56.401Z,5.95
2018-06-11T21:46:32.737Z,5.62
2018-06-11T21:49:08.028Z,7.60
2018-06-11T21:51:45.042Z,5.08
2018-06-11T21:54:21.172Z,4.97
2018-06-11T21:56:59.432Z,4.08
2018-06-11T21:59:35.676Z,7.35
2018-06-11T22:02:10.860Z,4.00
2018-06-11T22:04:50.528Z,5.37
2018-06-11T22:07:26.440Z,4.78
2018-06-11T22:10:01.521Z,7.45
2018-06-11T22:12:37.810Z,4.40
2018-06-11T22:15:14.760Z,5.40
2018-06-11T22:17:50.100Z,4.83
2018-06-11T22:20:26.626Z,4.25
2018-06-11T22:23:03.033Z,5.67
2018-06-11T22:25:42.373Z,4.17
2018-06-11T22:28:20.686Z,5.62
2018-06-11T22:30:57.752Z,8.58
2018-06-11T22:33:39.411Z,5.92
2018-06-11T22:36:15.071Z,4.20
2018-06-11T22:38:52.786Z,4.47
2018-06-11T22:41:29.281Z,6.33
2018-06-11T22:44:06.462Z,5.78
2018-06-11T22:46:43.459Z,5.03
2018-06-11T22:49:21.337Z,4.72
2018-06-11T22:51:59.618Z,6.08
2018-06-11T22:54:34.762Z,6.03
2018-06-11T22:57:13.274Z,4.70
2018-06-11T22:59:51.033Z,6.65
2018-06-11T23:02:27.177Z,5.22
2018-06-11T23:05:04.217Z,6.83
2018-06-11T23:07:40.599Z,6.80
2018-06-11T23:10:18.569Z,4.75
2018-06-11T23:12:55.108Z,5.30
2018-06-11T23:15:30.472Z,7.15
2018-06-11T23:18:06.590Z,4.72
2018-06-11T23:20:42.422Z,5.22
2018-06-11T23:23:19.589Z,5.30
2018-06-11T23:25:55.395Z,4.83
2018-06-11T23:28:30.933Z,4.90
2018-06-11T23:31:06.920Z,5.72
2018-06-11T23:33:43.114Z,6.28
2018-06-11T23:36:20.272Z,8.08
2018-06-11T23:38:55.215Z,4.62
2018-06-11T23:41:30.129Z,5.00
2018-06-11T23:44:07.477Z,6.03
2018-06-11T23:46:44.435Z,4.90
2018-06-11T23:49:19.281Z,7.25
2018-06-11T23:51:54.546Z,4.95
2018-06-11T23:54:35.347Z,6.08
2018-06-11T23:57:14.976Z,5.10
2018-06-11T23:59:50.904Z,4.90
